Crisnee, Belgium
Current Conditions -  °F | °C
As of 8:20 PM on Thursday 30 Oct 2014 (Local Time) from EBLG Reporting Station
Clear Clear  
Wind Chill: 57°   Ceiling: Unl
Heat Index: 57°   Visibility: 6mi
Dew Point: 54°   Wind: 10mph
Humidity: 88%   Direction: 170°S
Pressure: 30.21"   Gusts: NA
Location:  50.72°N, 5.4°E
Report Text: EBLG 301920Z 17009KT CAVOK 14/12 Q1023 NOSIG
Loading
Personal Weather Stations






























Interactive Weather Map
Tropical Storm Tracking
New forecast layout! Learn more

10-Day Weather Forecast

Advertisements
Track Severe Weather on mobile